Terminal Aerodrome Forecast
Issued by NWS Tampa Bay Area, FL

Home | Current Version | Previous Version | Text Only | Print | Product List | Glossary On
Versions: 1 2 3 4 5 6 7 8 9 10 11 12 13 14 15 16
089
FTUS42 KTBW 300048 AAA
TAFFMY
TAF AMD
KFMY 300048Z 3001/3024 30006KT P6SM SCT050
      TEMPO 3002/3004 14012KT 4SM TSRA BKN035CB
     FM300400 VRB03KT P6SM SCT050
     FM301400 13010KT P6SM SCT050
     FM302000 18012KT P6SM SCT050=

USA.gov is the U.S. government's official web portal to all federal, state and local government web resources and services.